Terminal Aerodrome Forecast
Issued by NWS

Home | Current Version | Previous Version | Text Only | Print | Product List | Glossary On
Versions: 1 2 3 4 5 6 7 8 9 10 11 12 13 14 15 16 17 18
000
FTUS46 KMTR 221130
TAFOAK
TAF
KOAK 221130Z 2212/2318 15030G40KT 3SM RA OVC025 WS020/17060KT
     FM221330 16020G30KT 6SM SHRA OVC030
     FM221800 18010KT P6SM VCTS SCT030 BKN050CB
     FM222100 21015G25KT P6SM VCTS BKN030 OVC050CB
     FM230300 23012KT P6SM VCSH SCT050 BKN080=

USA.gov is the U.S. government's official web portal to all federal, state and local government web resources and services.